Time;durP1;ratioP1;P1;durP2;ratioP2;P2;SDS_P1;SDS_P2;PMS_P1;PMS_P2;Temp;Humidity;BMP_temperature;BMP_pressure;BME280_temperature;BME280_humidity;BME280_pressure;Samples;Min_cycle;Max_cycle;Signal;HPM_P1;HPM_P2
2021/05/04 00:01:08;;;;;;;18.13;6.13;;;11.90;55.70;;;;;;5108332;28;20353;-60
2021/05/04 00:03:34;;;;;;;16.70;6.20;;;11.90;55.70;;;;;;5109406;28;20040;-60
2021/05/04 00:06:00;;;;;;;12.52;5.30;;;11.90;55.80;;;;;;5108050;28;20852;-60
2021/05/04 00:08:27;;;;;;;24.05;5.97;;;11.90;55.70;;;;;;5107696;27;20460;-59
2021/05/04 00:10:53;;;;;;;16.73;6.40;;;11.80;55.50;;;;;;5107548;28;20059;-60
2021/05/04 00:13:19;;;;;;;19.58;6.00;;;11.90;55.70;;;;;;5107857;28;20089;-59
2021/05/04 00:15:45;;;;;;;15.57;5.93;;;11.90;55.70;;;;;;5107368;28;20049;-59
2021/05/04 00:18:11;;;;;;;15.20;5.35;;;11.90;55.70;;;;;;5107416;28;20046;-59
2021/05/04 00:20:37;;;;;;;16.42;7.05;;;11.90;55.70;;;;;;5106195;28;20028;-60
2021/05/04 00:23:03;;;;;;;17.50;5.05;;;11.90;55.70;;;;;;5107208;28;20066;-60
2021/05/04 00:25:29;;;;;;;17.25;5.68;;;11.90;55.70;;;;;;5107437;28;20123;-59
2021/05/04 00:27:55;;;;;;;15.77;5.97;;;11.90;55.70;;;;;;5107474;28;20436;-59
2021/05/04 00:30:21;;;;;;;14.27;5.93;;;11.90;55.70;;;;;;5106839;28;20104;-59
2021/05/04 00:32:47;;;;;;;23.33;6.78;;;11.90;55.80;;;;;;5108262;28;20397;-60
2021/05/04 00:35:13;;;;;;;14.73;6.07;;;11.90;55.80;;;;;;5107016;28;20036;-61
2021/05/04 00:37:39;;;;;;;22.17;6.85;;;11.90;55.70;;;;;;5107460;28;20032;-60
2021/05/04 00:40:06;;;;;;;12.07;4.90;;;11.90;55.70;;;;;;5107084;28;20516;-59
2021/05/04 00:42:32;;;;;;;14.60;5.63;;;11.80;55.50;;;;;;5107341;28;20039;-60
2021/05/04 00:44:58;;;;;;;18.23;6.45;;;11.90;55.70;;;;;;5106956;28;20039;-59
2021/05/04 00:47:25;;;;;;;12.95;5.35;;;11.90;55.80;;;;;;5107255;28;20483;-59
2021/05/04 00:49:51;;;;;;;14.85;6.10;;;11.90;55.70;;;;;;5107117;28;20032;-59
2021/05/04 00:52:17;;;;;;;12.15;4.90;;;11.90;55.70;;;;;;5106593;28;20055;-60
2021/05/04 00:54:44;;;;;;;22.65;5.90;;;11.90;55.70;;;;;;5106781;28;20024;-59
2021/05/04 00:57:12;;;;;;;12.00;5.43;;;11.80;55.50;;;;;;5106949;28;20039;-60
2021/05/04 00:59:38;;;;;;;12.50;4.60;;;11.80;55.50;;;;;;5105509;28;20032;-60
2021/05/04 01:02:05;;;;;;;12.55;4.82;;;11.80;55.50;;;;;;5106518;28;20021;-60
2021/05/04 01:04:32;;;;;;;12.68;5.07;;;11.80;55.50;;;;;;5105215;28;20051;-60
2021/05/04 01:07:00;;;;;;;13.38;5.20;;;11.80;55.50;;;;;;5107291;28;20024;-59
2021/05/04 01:09:26;;;;;;;13.50;4.68;;;11.80;55.50;;;;;;5106662;28;20024;-59
2021/05/04 01:11:52;;;;;;;12.00;4.22;;;11.80;55.50;;;;;;5106332;28;20478;-60
2021/05/04 01:14:19;;;;;;;11.55;5.25;;;11.80;55.50;;;;;;5106059;28;20521;-60
2021/05/04 01:16:55;;;;;;;16.13;4.70;;;11.80;55.50;;;;;;5106343;28;20038;-59
2021/05/04 01:19:22;;;;;;;14.25;5.10;;;11.80;55.50;;;;;;5106618;28;20375;-59
2021/05/04 01:21:49;;;;;;;11.25;4.25;;;11.80;55.50;;;;;;5106552;28;20550;-59
2021/05/04 01:24:17;;;;;;;8.55;3.63;;;11.80;55.50;;;;;;5105887;28;20486;-61
2021/05/04 01:26:44;;;;;;;11.80;3.97;;;11.80;55.50;;;;;;5106653;28;20027;-60
2021/05/04 01:29:10;;;;;;;10.38;3.75;;;11.80;55.50;;;;;;5105927;28;20027;-59
2021/05/04 01:31:37;;;;;;;10.35;4.28;;;11.80;56.10;;;;;;5102759;22;20060;-72
2021/05/04 01:34:04;;;;;;;9.95;4.13;;;11.80;55.50;;;;;;5080085;28;20123;-72
2021/05/04 01:36:30;;;;;;;11.85;4.63;;;11.80;55.50;;;;;;5082845;28;20356;-73
2021/05/04 01:38:56;;;;;;;11.40;4.40;;;11.70;55.30;;;;;;5086410;28;20047;-73
2021/05/04 01:41:22;;;;;;;12.48;4.78;;;11.70;55.30;;;;;;5088503;28;20028;-73
2021/05/04 01:43:49;;;;;;;10.32;4.13;;;11.70;55.30;;;;;;5087901;28;20035;-73
2021/05/04 01:46:15;;;;;;;11.10;4.47;;;11.70;55.30;;;;;;5094416;22;20384;-80
2021/05/04 01:48:41;;;;;;;14.73;4.32;;;11.70;55.30;;;;;;5068951;28;20067;-79
2021/05/04 01:51:07;;;;;;;11.05;3.85;;;11.70;55.30;;;;;;5070210;28;20056;-79
2021/05/04 01:53:33;;;;;;;9.82;4.30;;;11.70;55.30;;;;;;5069107;28;20027;-79
2021/05/04 01:55:59;;;;;;;12.25;3.45;;;11.70;55.30;;;;;;5070626;28;20123;-80
2021/05/04 01:58:25;;;;;;;12.60;4.10;;;11.70;55.30;;;;;;5069811;28;20021;-80
2021/05/04 02:00:51;;;;;;;9.82;3.80;;;11.70;55.30;;;;;;5070316;28;20032;-80
2021/05/04 02:03:17;;;;;;;11.27;3.97;;;11.60;55.10;;;;;;5052731;28;20040;-80
2021/05/04 02:05:43;;;;;;;11.75;3.88;;;11.60;55.10;;;;;;5074388;28;20024;-80
2021/05/04 02:08:09;;;;;;;8.75;3.45;;;11.60;55.10;;;;;;5075210;28;20031;-81
2021/05/04 02:10:35;;;;;;;11.52;4.05;;;11.60;55.10;;;;;;5074989;28;20020;-80
2021/05/04 02:13:01;;;;;;;9.65;3.92;;;11.60;55.20;;;;;;5074756;28;20492;-80
2021/05/04 02:15:27;;;;;;;10.40;4.75;;;11.60;55.20;;;;;;5075079;28;20467;-80
2021/05/04 02:17:53;;;;;;;8.95;4.13;;;11.60;55.20;;;;;;5074920;28;20035;-80
2021/05/04 02:20:19;;;;;;;9.63;3.78;;;11.60;55.20;;;;;;5074886;28;20024;-79
2021/05/04 02:22:45;;;;;;;11.95;4.10;;;11.60;55.20;;;;;;5073387;28;20040;-80
2021/05/04 02:25:12;;;;;;;7.95;3.55;;;11.50;55.10;;;;;;5073495;28;20274;-81
2021/05/04 02:27:38;;;;;;;11.88;3.88;;;11.50;55.10;;;;;;5075281;28;20040;-81
2021/05/04 02:30:05;;;;;;;8.00;3.22;;;11.50;55.10;;;;;;5075284;28;20046;-80
2021/05/04 02:32:34;;;;;;;7.55;3.58;;;11.50;55.20;;;;;;5074789;28;20025;-79
2021/05/04 02:35:02;;;;;;;8.90;3.35;;;11.50;55.20;;;;;;5073118;28;20038;-78
2021/05/04 02:37:28;;;;;;;10.00;3.25;;;11.50;55.30;;;;;;5073522;28;20119;-79
2021/05/04 02:39:54;;;;;;;7.97;3.03;;;11.50;55.30;;;;;;5072454;28;20043;-79
2021/05/04 02:42:20;;;;;;;7.55;3.42;;;11.50;55.30;;;;;;5073235;28;20032;-79
2021/05/04 02:44:46;;;;;;;9.27;3.55;;;11.50;55.40;;;;;;5073930;28;20028;-80
2021/05/04 02:47:13;;;;;;;7.82;3.95;;;11.50;55.40;;;;;;5073197;28;20040;-81
2021/05/04 02:49:39;;;;;;;7.72;3.22;;;11.50;55.40;;;;;;5074217;28;20476;-79
2021/05/04 02:52:05;;;;;;;8.80;3.58;;;11.50;55.50;;;;;;5073073;28;20035;-80
2021/05/04 02:54:31;;;;;;;7.15;3.15;;;11.50;55.40;;;;;;5072928;28;20025;-80
2021/05/04 02:56:57;;;;;;;13.20;3.08;;;11.50;55.50;;;;;;5073759;28;20032;-81
2021/05/04 02:59:23;;;;;;;5.47;2.53;;;11.40;55.30;;;;;;5074102;28;20415;-81
2021/05/04 03:01:49;;;;;;;6.13;2.40;;;11.40;55.30;;;;;;5074091;28;20068;-80
2021/05/04 03:04:15;;;;;;;7.28;3.13;;;11.40;55.30;;;;;;5073970;28;20078;-80
2021/05/04 03:06:41;;;;;;;6.65;3.50;;;11.40;55.30;;;;;;5074581;28;20033;-79
2021/05/04 03:09:07;;;;;;;5.35;2.97;;;11.40;55.30;;;;;;5073899;28;20329;-79
2021/05/04 03:11:33;;;;;;;6.20;3.08;;;11.40;55.30;;;;;;5073606;28;20040;-81
2021/05/04 03:13:59;;;;;;;4.82;2.80;;;11.40;55.30;;;;;;5073381;28;20024;-79
2021/05/04 03:16:25;;;;;;;8.32;3.13;;;11.40;55.30;;;;;;5072187;28;20028;-80
2021/05/04 03:18:51;;;;;;;7.22;3.00;;;11.40;55.30;;;;;;5073838;28;20029;-80
2021/05/04 03:21:18;;;;;;;6.53;3.00;;;11.40;55.30;;;;;;5073644;28;20051;-79
2021/05/04 03:23:46;;;;;;;7.03;3.33;;;11.40;55.30;;;;;;5073628;28;20086;-80
2021/05/04 03:26:14;;;;;;;5.82;2.67;;;11.30;55.20;;;;;;5073718;28;20020;-81
2021/05/04 03:28:40;;;;;;;4.65;2.72;;;11.30;55.20;;;;;;5072590;28;20082;-79
2021/05/04 03:31:06;;;;;;;5.05;2.72;;;11.30;55.20;;;;;;5071983;28;20034;-79
2021/05/04 03:33:32;;;;;;;3.63;2.28;;;11.30;55.20;;;;;;5072271;28;20119;-79
2021/05/04 03:35:58;;;;;;;3.47;2.22;;;11.30;55.20;;;;;;5072391;28;20116;-79
2021/05/04 03:38:24;;;;;;;5.40;2.38;;;11.30;55.20;;;;;;5073566;28;20032;-80
2021/05/04 03:40:51;;;;;;;4.85;2.47;;;11.30;55.20;;;;;;5072122;28;20117;-79
2021/05/04 03:43:17;;;;;;;6.35;2.85;;;11.20;55.00;;;;;;5073096;28;20047;-81
2021/05/04 03:45:43;;;;;;;3.72;1.98;;;11.20;55.00;;;;;;5073266;28;20058;-80
2021/05/04 03:48:09;;;;;;;6.90;2.47;;;11.20;55.00;;;;;;5072915;28;20028;-79
2021/05/04 03:50:35;;;;;;;6.85;2.67;;;11.20;55.00;;;;;;5073143;28;20045;-79
2021/05/04 03:53:01;;;;;;;3.90;1.92;;;11.10;54.90;;;;;;5072724;28;20025;-79
2021/05/04 03:55:28;;;;;;;2.80;1.80;;;11.10;54.90;;;;;;5073101;28;20041;-83
2021/05/04 03:57:54;;;;;;;4.53;2.60;;;11.10;54.90;;;;;;5073203;28;20033;-81
2021/05/04 04:00:22;;;;;;;6.47;2.05;;;11.10;54.90;;;;;;5073322;28;20047;-81
2021/05/04 04:02:48;;;;;;;3.75;1.80;;;11.10;54.90;;;;;;5071549;28;20056;-81
2021/05/04 04:05:14;;;;;;;3.38;2.17;;;11.10;55.00;;;;;;5072047;28;20036;-80
2021/05/04 04:07:40;;;;;;;2.67;1.85;;;11.10;55.60;;;;;;5054618;28;20553;-80
2021/05/04 04:10:07;;;;;;;2.15;1.80;;;11.00;54.80;;;;;;5072552;28;20024;-80
2021/05/04 04:12:34;;;;;;;2.20;1.88;;;11.00;54.90;;;;;;5072617;28;20032;-80
2021/05/04 04:15:00;;;;;;;2.70;1.77;;;11.00;54.90;;;;;;5072481;28;20059;-79
2021/05/04 04:17:26;;;;;;;5.20;2.08;;;10.90;54.70;;;;;;5072814;28;20103;-81
2021/05/04 04:19:52;;;;;;;4.20;2.15;;;10.90;54.70;;;;;;5072953;28;20171;-80
2021/05/04 04:22:18;;;;;;;4.53;2.08;;;10.90;54.80;;;;;;5072155;28;20434;-80
2021/05/04 04:24:44;;;;;;;5.30;2.47;;;10.90;54.80;;;;;;5072401;28;20051;-79
2021/05/04 04:27:10;;;;;;;2.80;1.83;;;10.90;54.80;;;;;;5070350;28;20381;-80
2021/05/04 04:29:37;;;;;;;3.28;1.98;;;10.80;54.60;;;;;;5072491;28;20040;-81
2021/05/04 04:32:04;;;;;;;3.28;1.60;;;10.80;54.60;;;;;;5070400;28;20617;-82
2021/05/04 04:34:30;;;;;;;4.75;1.85;;;10.80;54.60;;;;;;5072234;28;20082;-82
2021/05/04 04:36:56;;;;;;;3.47;1.80;;;10.80;54.70;;;;;;5072028;28;20090;-81
2021/05/04 04:39:22;;;;;;;3.67;2.30;;;10.80;54.70;;;;;;5072407;28;20450;-81
2021/05/04 04:41:48;;;;;;;2.05;1.85;;;10.70;54.50;;;;;;5070904;28;20033;-81
2021/05/04 04:44:14;;;;;;;2.35;1.73;;;10.80;54.70;;;;;;5071101;28;20124;-82
2021/05/04 04:46:41;;;;;;;2.33;1.30;;;10.70;54.50;;;;;;5072027;28;20044;-82
2021/05/04 04:49:08;;;;;;;2.00;1.50;;;10.70;54.50;;;;;;5063812;28;20032;-81
2021/05/04 04:51:35;;;;;;;2.15;1.65;;;10.70;54.50;;;;;;5064210;28;20381;-83
2021/05/04 04:54:01;;;;;;;4.10;1.40;;;10.70;54.50;;;;;;5064180;28;20484;-84
2021/05/04 04:56:27;;;;;;;2.78;1.55;;;10.70;54.50;;;;;;5048736;28;20440;-84
2021/05/04 04:58:53;;;;;;;2.92;1.70;;;10.70;54.60;;;;;;5061690;28;20119;-80
2021/05/04 05:01:19;;;;;;;2.40;1.42;;;10.70;54.60;;;;;;5068927;28;20024;-81
2021/05/04 05:03:45;;;;;;;2.42;1.83;;;10.70;54.50;;;;;;5065620;28;20124;-80
2021/05/04 05:06:11;;;;;;;3.83;1.58;;;10.70;54.50;;;;;;5068307;28;20124;-80
2021/05/04 05:08:37;;;;;;;2.30;1.60;;;10.80;54.60;;;;;;5067596;28;20450;-80
2021/05/04 05:11:03;;;;;;;2.15;1.65;;;10.80;54.60;;;;;;5066840;28;20108;-81
2021/05/04 05:13:29;;;;;;;1.92;1.40;;;10.80;54.60;;;;;;5067510;28;20035;-81
2021/05/04 05:15:55;;;;;;;2.70;1.83;;;10.80;54.50;;;;;;5068540;28;20028;-81
2021/05/04 05:18:21;;;;;;;2.83;1.88;;;10.80;54.50;;;;;;5067641;28;20029;-81
2021/05/04 05:20:47;;;;;;;2.05;1.23;;;10.80;54.50;;;;;;5065528;28;20392;-79
2021/05/04 05:23:13;;;;;;;2.25;1.33;;;10.90;54.70;;;;;;5065396;28;20036;-81
2021/05/04 05:25:40;;;;;;;4.45;1.90;;;10.90;54.60;;;;;;5067268;28;20466;-82
2021/05/04 05:28:06;;;;;;;2.75;1.70;;;10.90;54.60;;;;;;5067356;28;20031;-84
2021/05/04 05:30:33;;;;;;;3.40;1.88;;;10.90;54.60;;;;;;5049890;28;20322;-83
2021/05/04 05:33:00;;;;;;;2.63;1.77;;;10.90;54.50;;;;;;5045502;28;20028;-84
2021/05/04 05:35:26;;;;;;;1.42;1.33;;;10.90;54.50;;;;;;5047800;28;20079;-79
2021/05/04 05:37:52;;;;;;;2.47;1.83;;;11.00;54.70;;;;;;5051277;28;20025;-80
2021/05/04 05:40:18;;;;;;;2.65;1.58;;;11.00;54.60;;;;;;5067414;28;20036;-81
2021/05/04 05:42:44;;;;;;;2.40;1.38;;;11.00;54.60;;;;;;5065769;28;20028;-83
2021/05/04 05:45:10;;;;;;;3.22;1.48;;;11.00;54.50;;;;;;5066779;28;20039;-82
2021/05/04 05:47:36;;;;;;;2.33;1.58;;;11.10;54.70;;;;;;5065381;28;20508;-81
2021/05/04 05:50:04;;;;;;;3.08;1.42;;;11.10;54.70;;;;;;5065125;28;20035;-78
2021/05/04 05:52:30;;;;;;;1.48;1.20;;;11.20;54.90;;;;;;5076835;28;20032;-78
2021/05/04 05:54:56;;;;;;;1.48;1.27;;;11.20;54.80;;;;;;5046921;28;20091;-80
2021/05/04 05:57:22;;;;;;;2.53;1.75;;;11.30;54.90;;;;;;5055544;28;20021;-81
2021/05/04 05:59:48;;;;;;;2.13;1.80;;;11.40;55.00;;;;;;5064680;28;20032;-83
2021/05/04 06:02:14;;;;;;;2.92;2.38;;;11.40;55.10;;;;;;5067104;28;20123;-81
2021/05/04 06:04:40;;;;;;;4.10;1.95;;;11.50;55.90;;;;;;5066374;28;20032;-83
2021/05/04 06:07:06;;;;;;;5.88;1.98;;;11.70;57.00;;;;;;5067235;28;20426;-84
2021/05/04 06:09:32;;;;;;;2.67;1.60;;;11.90;57.70;;;;;;5048958;28;20484;-80
2021/05/04 06:11:59;;;;;;;7.65;2.47;;;12.10;58.20;;;;;;5045445;28;20087;-77
2021/05/04 06:14:25;;;;;;;6.55;2.38;;;12.30;58.60;;;;;;5047525;28;20470;-80
2021/05/04 06:16:51;;;;;;;3.17;2.13;;;12.50;58.80;;;;;;5066878;28;20060;-81
2021/05/04 06:19:18;;;;;;;7.80;2.00;;;12.60;59.00;;;;;;5050149;28;20029;-78
2021/05/04 06:21:44;;;;;;;5.45;2.63;;;12.70;59.10;;;;;;5046344;28;20071;-80
2021/05/04 06:24:10;;;;;;;4.28;2.00;;;12.80;59.20;;;;;;5045115;28;20064;-79
2021/05/04 06:26:36;;;;;;;4.63;1.70;;;13.00;59.40;;;;;;5044838;28;20392;-79
2021/05/04 06:29:04;;;;;;;2.08;1.58;;;13.10;59.30;;;;;;5044913;28;20039;-81
2021/05/04 06:31:30;;;;;;;3.67;1.60;;;13.20;59.40;;;;;;5055112;28;20082;-83
2021/05/04 06:33:57;;;;;;;4.90;2.08;;;13.30;59.20;;;;;;5066641;28;20024;-81
2021/05/04 06:36:23;;;;;;;2.00;1.50;;;13.40;59.10;;;;;;5067110;28;20119;-83
2021/05/04 06:38:49;;;;;;;3.90;2.10;;;13.50;59.00;;;;;;5045875;28;20123;-81
2021/05/04 06:41:15;;;;;;;3.85;1.90;;;13.60;58.90;;;;;;5046649;28;20051;-82
2021/05/04 06:43:41;;;;;;;2.85;1.63;;;13.60;58.80;;;;;;5060570;28;20480;-82
2021/05/04 06:46:07;;;;;;;3.25;1.48;;;13.70;59.00;;;;;;5066400;28;20060;-80
2021/05/04 06:48:33;;;;;;;3.72;1.70;;;13.80;59.20;;;;;;5065280;28;20369;-79
2021/05/04 06:50:59;;;;;;;3.78;2.08;;;14.00;59.60;;;;;;5068048;28;20036;-79
2021/05/04 06:53:26;;;;;;;2.35;1.70;;;14.20;59.80;;;;;;5068324;28;20086;-79
2021/05/04 06:55:53;;;;;;;3.00;1.58;;;14.30;59.70;;;;;;5069540;28;20035;-79
2021/05/04 06:58:19;;;;;;;7.20;1.92;;;14.40;59.50;;;;;;5069591;28;20440;-78
2021/05/04 07:00:45;;;;;;;5.57;2.08;;;14.50;59.30;;;;;;5070146;28;20033;-81
2021/05/04 07:03:11;;;;;;;3.28;1.30;;;14.50;59.00;;;;;;5069606;28;20510;-79
2021/05/04 07:05:37;;;;;;;3.28;1.77;;;14.60;59.10;;;;;;5068238;28;20025;-79
2021/05/04 07:08:04;;;;;;;3.67;1.88;;;14.70;59.10;;;;;;5068639;28;20025;-81
2021/05/04 07:10:30;;;;;;;2.80;1.50;;;14.80;59.40;;;;;;5069187;28;20036;-79
2021/05/04 07:12:56;;;;;;;2.42;1.40;;;14.90;59.10;;;;;;5068185;28;20028;-82
2021/05/04 07:15:22;;;;;;;2.50;1.73;;;15.10;59.40;;;;;;5068154;28;20029;-80
2021/05/04 07:17:48;;;;;;;4.00;1.42;;;15.20;59.40;;;;;;5051979;28;20032;-82
2021/05/04 07:20:19;;;;;;;2.80;1.55;;;15.40;59.70;;;;;;5070035;28;20411;-80
2021/05/04 07:22:47;;;;;;;2.67;1.52;;;15.80;60.20;;;;;;5069286;28;20036;-82
2021/05/04 07:25:13;;;;;;;3.50;1.38;;;16.10;60.30;;;;;;5052459;28;20633;-84
2021/05/04 07:27:39;;;;;;;1.80;1.40;;;16.50;60.20;;;;;;5053314;28;20067;-85
2021/05/04 07:30:06;;;;;;;2.92;1.50;;;16.70;59.70;;;;;;5069521;28;20039;-86
2021/05/04 07:32:32;;;;;;;3.75;1.67;;;16.70;59.10;;;;;;5070336;28;20497;-82
2021/05/04 07:34:58;;;;;;;2.67;1.27;;;16.70;58.70;;;;;;5069714;28;20082;-80
2021/05/04 07:37:24;;;;;;;2.42;1.23;;;16.70;58.50;;;;;;5070560;28;20025;-84
2021/05/04 07:39:50;;;;;;;2.10;1.40;;;16.60;58.10;;;;;;5069649;28;20250;-80
2021/05/04 07:42:16;;;;;;;2.13;1.42;;;16.60;58.00;;;;;;5067511;28;20028;-84
2021/05/04 07:44:42;;;;;;;4.40;2.22;;;16.50;57.90;;;;;;5069887;28;20036;-85
2021/05/04 07:47:08;;;;;;;2.38;1.33;;;16.40;57.60;;;;;;5051317;28;20044;-83
2021/05/04 07:49:42;;;;;;;3.60;1.73;;;16.50;58.10;;;;;;5068416;28;20032;-84
2021/05/04 07:52:08;;;;;;;2.75;1.60;;;16.70;58.20;;;;;;5067938;28;20491;-83
2021/05/04 07:54:34;;;;;;;2.72;1.30;;;16.90;58.20;;;;;;5069742;28;20025;-89
2021/05/04 07:57:00;;;;;;;2.15;1.27;;;17.10;58.00;;;;;;5051679;28;20321;-83
2021/05/04 07:59:26;;;;;;;2.00;1.50;;;17.20;57.90;;;;;;5068670;28;20097;-84
2021/05/04 08:01:52;;;;;;;3.75;1.30;;;17.30;57.60;;;;;;5084845;28;20119;-84
2021/05/04 08:04:18;;;;;;;2.70;1.25;;;17.60;58.10;;;;;;5084587;28;20553;-85
2021/05/04 08:06:44;;;;;;;2.65;1.33;;;17.80;57.80;;;;;;5068980;28;20116;-86
2021/05/04 08:09:10;;;;;;;1.45;1.10;;;18.00;57.70;;;;;;5069353;28;20444;-85
2021/05/04 08:11:36;;;;;;;2.67;1.20;;;18.30;57.50;;;;;;5036058;28;20024;-85
2021/05/04 08:14:05;;;;;;;2.83;1.30;;;18.30;56.90;;;;;;5050130;28;20560;-88
2021/05/04 08:16:32;;;;;;;1.80;1.10;;;18.30;56.50;;;;;;5051518;28;20529;-90
2021/05/04 08:18:58;;;;;;;2.70;1.27;;;18.20;56.30;;;;;;5032779;28;20037;-88
2021/05/04 08:21:27;;;;;;;1.67;1.20;;;18.10;56.10;;;;;;5032943;28;20029;-90
2021/05/04 08:23:53;;;;;;;1.75;1.17;;;18.00;56.00;;;;;;5033043;28;20124;-87
2021/05/04 08:26:19;;;;;;;2.08;1.33;;;17.90;55.80;;;;;;5050037;28;20128;-86
2021/05/04 08:28:46;;;;;;;1.52;1.10;;;17.90;55.80;;;;;;5049130;28;20032;-86
2021/05/04 08:31:12;;;;;;;1.85;1.17;;;17.80;55.70;;;;;;5049342;28;20499;-87
2021/05/04 08:33:38;;;;;;;2.17;1.35;;;17.70;55.60;;;;;;5063293;28;20505;-90
2021/05/04 08:36:04;;;;;;;1.80;1.30;;;17.70;55.60;;;;;;5052750;28;20480;-90
2021/05/04 08:38:30;;;;;;;2.85;1.40;;;17.60;55.40;;;;;;5068198;28;20066;-85
2021/05/04 08:40:57;;;;;;;1.98;1.23;;;17.60;55.50;;;;;;5052177;28;20109;-87
2021/05/04 08:43:25;;;;;;;3.88;1.35;;;17.60;55.50;;;;;;5051701;28;20047;-89
2021/05/04 08:45:58;;;;;;;2.33;1.38;;;17.50;55.30;;;;;;5051653;28;20029;-88
2021/05/04 08:48:25;;;;;;;1.85;1.05;;;17.40;55.10;;;;;;5051144;28;20032;-85
2021/05/04 08:50:58;;;;;;;2.33;1.30;;;17.50;55.40;;;;;;5067116;28;20029;-86
2021/05/04 08:53:25;;;;;;;2.10;1.27;;;17.50;55.40;;;;;;5069110;28;20025;-88
2021/05/04 08:55:51;;;;;;;2.08;1.40;;;17.50;55.20;;;;;;5069746;28;20033;-89
2021/05/04 08:58:17;;;;;;;2.22;1.42;;;17.60;55.60;;;;;;5065474;28;20021;-92
2021/05/04 09:00:43;;;;;;;3.35;1.30;;;17.70;56.00;;;;;;5050903;28;20048;-83
2021/05/04 09:03:15;;;;;;;1.77;1.17;;;17.80;55.50;;;;;;5064104;28;20549;-84
2021/05/04 09:05:51;;;;;;;2.63;1.42;;;17.80;55.40;;;;;;5072538;28;20028;-87
2021/05/04 09:08:33;;;;;;;1.95;1.20;;;17.90;55.40;;;;;;5070890;28;20028;-93
2021/05/04 09:16:39;;;;;;;2.60;1.40;;;18.40;55.60;;;;;;5068966;28;20056;-87
2021/05/04 09:19:19;;;;;;;1.90;1.45;;;18.60;55.80;;;;;;5066211;28;20032;-83
2021/05/04 09:21:46;;;;;;;2.10;1.40;;;18.80;55.80;;;;;;5065796;28;20062;-80
2021/05/04 09:24:30;;;;;;;2.42;1.55;;;18.90;55.70;;;;;;5067306;28;20035;-84
2021/05/04 09:27:10;;;;;;;2.20;1.40;;;19.00;55.80;;;;;;5066148;28;20431;-84
2021/05/04 09:29:43;;;;;;;3.15;1.70;;;19.10;55.80;;;;;;5066930;28;20028;-86
2021/05/04 09:32:16;;;;;;;3.20;1.42;;;19.20;55.80;;;;;;5067284;28;20431;-87
2021/05/04 09:34:43;;;;;;;2.63;1.38;;;19.30;55.80;;;;;;5068276;28;20387;-86
2021/05/04 09:37:51;;;;;;;1.98;1.45;;;19.40;55.80;;;;;;5068120;28;20040;-85
2021/05/04 09:40:25;;;;;;;6.40;2.10;;;19.50;55.70;;;;;;5030825;28;20396;-83
2021/05/04 09:43:04;;;;;;;8.43;1.98;;;19.50;54.70;;;;;;5033362;28;20373;-87
2021/05/04 09:45:31;;;;;;;6.93;1.80;;;19.50;54.20;;;;;;5062585;28;20037;-85
2021/05/04 09:48:32;;;;;;;3.35;1.70;;;19.60;54.50;;;;;;5051821;28;20139;-86
2021/05/04 09:51:07;;;;;;;4.88;1.55;;;19.60;54.20;;;;;;5067950;28;20412;-85
2021/05/04 09:53:46;;;;;;;6.57;1.92;;;19.70;54.20;;;;;;5049227;28;20109;-85
2021/05/04 09:56:14;;;;;;;3.47;1.83;;;19.70;54.10;;;;;;5065793;28;20468;-85
2021/05/04 09:58:45;;;;;;;4.18;1.98;;;19.70;54.10;;;;;;5046246;28;20024;-86
2021/05/04 10:01:13;;;;;;;6.03;1.80;;;19.70;54.00;;;;;;5045716;28;20029;-84
2021/05/04 10:03:41;;;;;;;2.05;1.48;;;19.70;53.90;;;;;;5059315;28;20037;-83
2021/05/04 10:06:10;;;;;;;3.95;1.83;;;19.70;53.80;;;;;;5049165;28;20086;-83
2021/05/04 10:08:37;;;;;;;2.17;1.63;;;19.80;53.90;;;;;;5066058;28;20021;-85
2021/05/04 10:11:09;;;;;;;4.22;1.83;;;19.80;53.90;;;;;;5065688;28;20029;-85
2021/05/04 10:13:36;;;;;;;3.58;1.70;;;19.90;54.00;;;;;;5065661;28;20570;-84
2021/05/04 10:16:04;;;;;;;4.32;1.60;;;20.10;54.20;;;;;;5065393;28;20356;-83
2021/05/04 10:18:30;;;;;;;3.65;1.88;;;20.10;54.00;;;;;;5049563;28;20024;-85
2021/05/04 10:20:59;;;;;;;3.22;1.60;;;20.30;54.20;;;;;;5049168;28;20034;-84
2021/05/04 10:23:26;;;;;;;3.38;1.85;;;20.40;54.20;;;;;;5065393;28;20040;-84
2021/05/04 10:25:57;;;;;;;2.88;2.10;;;20.40;54.00;;;;;;5068180;28;20070;-85
2021/05/04 10:28:47;;;;;;;5.35;2.38;;;20.40;54.00;;;;;;5053601;28;20054;-85
2021/05/04 10:31:15;;;;;;;5.82;3.63;;;20.40;54.00;;;;;;5066956;28;20032;-83
2021/05/04 10:33:41;;;;;;;5.88;3.20;;;20.40;54.00;;;;;;5056425;28;20037;-83
2021/05/04 10:36:34;;;;;;;5.68;3.03;;;20.40;54.00;;;;;;5050873;28;20098;-84
2021/05/04 10:39:01;;;;;;;4.10;3.00;;;20.50;54.20;;;;;;5045842;28;20037;-84
2021/05/04 10:41:27;;;;;;;3.88;2.78;;;20.60;54.40;;;;;;5033214;28;20531;-86
2021/05/04 10:44:04;;;;;;;4.68;2.70;;;20.60;54.20;;;;;;5051047;28;20049;-84
2021/05/04 10:46:42;;;;;;;4.55;2.72;;;20.70;54.10;;;;;;5051263;28;20056;-85
2021/05/04 10:49:19;;;;;;;4.28;2.70;;;20.80;54.10;;;;;;5062724;28;20368;-89
2021/05/04 10:51:50;;;;;;;4.75;3.05;;;20.90;54.10;;;;;;5073068;28;20025;-89
2021/05/04 10:54:21;;;;;;;4.45;2.58;;;20.90;53.90;;;;;;5070208;28;20044;-85
2021/05/04 10:56:57;;;;;;;3.53;2.35;;;20.90;53.90;;;;;;5070370;28;20032;-83
2021/05/04 10:59:23;;;;;;;4.22;2.45;;;20.90;53.80;;;;;;5053393;28;20060;-82
2021/05/04 11:02:21;;;;;;;3.28;2.33;;;20.90;53.70;;;;;;5050209;28;20065;-83
2021/05/04 11:04:48;;;;;;;2.60;2.15;;;21.00;53.70;;;;;;5008164;28;20076;-83
2021/05/04 11:08:01;;;;;;;2.78;2.15;;;21.00;53.60;;;;;;5035519;28;20111;-84
2021/05/04 11:10:28;;;;;;;4.30;2.75;;;21.00;53.50;;;;;;5050210;28;20052;-86
2021/05/04 11:12:55;;;;;;;4.28;2.40;;;21.00;53.50;;;;;;5023359;28;20119;-83
2021/05/04 11:15:24;;;;;;;4.55;2.05;;;21.00;53.40;;;;;;5069620;28;20037;-83
2021/05/04 11:17:51;;;;;;;3.20;2.22;;;21.10;53.50;;;;;;5068983;28;20024;-85
2021/05/04 11:20:33;;;;;;;4.20;2.75;;;21.20;53.50;;;;;;5069863;28;20060;-85
2021/05/04 11:22:59;;;;;;;7.13;2.67;;;21.30;53.50;;;;;;5069445;28;20063;-84
2021/05/04 11:25:40;;;;;;;1.98;1.77;;;21.30;53.50;;;;;;5070212;28;20032;-85
2021/05/04 11:28:08;;;;;;;3.60;2.55;;;21.40;53.50;;;;;;5068741;28;20054;-84
2021/05/04 11:30:42;;;;;;;3.40;2.20;;;21.50;53.60;;;;;;5068652;28;20196;-83
2021/05/04 11:33:29;;;;;;;4.25;2.38;;;21.60;53.50;;;;;;5069821;28;20376;-85
2021/05/04 11:35:57;;;;;;;6.32;2.38;;;21.70;53.60;;;;;;5068263;28;20032;-83
2021/05/04 11:38:25;;;;;;;4.15;2.00;;;21.80;53.60;;;;;;5069314;28;20021;-85
2021/05/04 11:40:53;;;;;;;2.75;2.05;;;21.90;53.60;;;;;;5069345;28;20024;-80
2021/05/04 11:43:20;;;;;;;4.78;2.10;;;21.90;53.40;;;;;;5057833;28;20102;-82
2021/05/04 11:45:48;;;;;;;3.40;1.80;;;21.90;51.30;;;;;;5048371;28;20048;-84
2021/05/04 11:48:15;;;;;;;6.03;2.15;;;21.60;49.30;;;;;;5031987;28;20407;-87
2021/05/04 11:50:43;;;;;;;8.18;2.30;;;21.30;48.20;;;;;;5051892;28;20025;-84
2021/05/04 11:53:17;;;;;;;3.83;1.58;;;21.10;46.90;;;;;;5049848;28;20057;-80
2021/05/04 11:55:48;;;;;;;4.60;1.83;;;20.80;45.70;;;;;;5048826;28;20027;-79
2021/05/04 11:58:22;;;;;;;2.50;1.50;;;20.60;45.20;;;;;;5048591;28;20056;-80
2021/05/04 12:00:56;;;;;;;7.63;2.40;;;20.50;44.70;;;;;;5047783;28;20043;-80
2021/05/04 12:03:22;;;;;;;10.98;2.80;;;20.40;44.20;;;;;;5042973;28;20088;-82
2021/05/04 12:05:48;;;;;;;11.55;2.53;;;20.30;44.10;;;;;;5051366;28;20024;-82
2021/05/04 12:08:14;;;;;;;5.28;2.30;;;20.40;44.30;;;;;;5047155;28;20029;-84
2021/05/04 12:10:46;;;;;;;4.78;2.28;;;20.40;44.40;;;;;;5064072;28;20029;-84
2021/05/04 12:13:20;;;;;;;4.45;2.00;;;20.40;44.50;;;;;;5068036;28;20029;-85
2021/05/04 12:15:48;;;;;;;4.05;2.03;;;20.50;44.80;;;;;;5067469;28;20449;-83
2021/05/04 12:18:24;;;;;;;5.72;2.40;;;20.70;45.20;;;;;;5067535;28;20033;-85
2021/05/04 12:20:52;;;;;;;4.47;2.05;;;20.80;45.30;;;;;;5051289;28;20043;-84
2021/05/04 12:23:31;;;;;;;4.25;2.03;;;20.90;45.40;;;;;;5058337;28;20033;-90
2021/05/04 12:26:05;;;;;;;4.25;2.05;;;21.10;45.80;;;;;;5048668;28;20033;-87
2021/05/04 12:28:32;;;;;;;3.65;1.58;;;21.30;46.20;;;;;;5050170;28;20033;-89
2021/05/04 12:31:04;;;;;;;4.90;2.15;;;21.50;46.50;;;;;;5050744;28;20063;-88
2021/05/04 12:33:31;;;;;;;6.30;2.22;;;21.80;46.80;;;;;;5032755;28;20037;-86
2021/05/04 12:38:31;;;;;;;2.97;1.75;;;22.10;47.00;;;;;;5048089;28;20029;-85
2021/05/04 12:40:59;;;;;;;3.38;1.88;;;22.20;47.10;;;;;;5047235;28;20124;-86
2021/05/04 12:43:29;;;;;;;3.88;2.00;;;22.20;47.10;;;;;;5032259;28;20049;-86
2021/05/04 12:46:10;;;;;;;2.17;1.40;;;22.20;47.10;;;;;;5048252;28;20045;-84
2021/05/04 12:48:41;;;;;;;2.00;1.35;;;22.00;46.70;;;;;;5047776;28;20047;-84
2021/05/04 12:51:15;;;;;;;4.57;1.70;;;22.00;46.90;;;;;;5048695;28;20025;-84
2021/05/04 12:53:46;;;;;;;2.97;1.40;;;22.10;47.20;;;;;;5047291;28;20402;-86
2021/05/04 12:56:19;;;;;;;2.55;1.33;;;22.20;47.40;;;;;;5046385;28;20124;-84
2021/05/04 12:58:52;;;;;;;;;;;22.20;47.30;;;;;;5046915;28;20021;-86